Spring Mountain Youth Camp, Nevada Weather observations

Data are for 60 minute period ending at time listed.
 Day   Time   Solar   Ave.   Ave.  Ave.  Vector  Max.   Baro.   Total    
  of    of     Rad.   Air    Rel.  Wind   Wind   Wind  Press.  Precip.   
Year   Day            Temp.  Hum.  Speed  Dir.   Gust                    
2017   (PST)  Kw/m2    F      %     mph   deg.    mph    mb.     in.     
-------------------------------------------------------------------------
 327    7:00   0.01   53.6    13    4.0   110     6.0   796.5    0.00 
 327    8:00   0.14   58.0    10    3.5   139     7.3   796.7    0.00 
 327    9:00   0.35   64.3    10    3.3   162     6.6   796.9    0.00 
 327   10:00   0.47   63.2    14    2.7   344     6.6   796.9    0.00 
 327   11:00   0.56   64.5    18    1.6   355     6.6   796.7    0.00 
 327   12:00   0.46   60.8    24    2.6   342     6.0   796.1    0.00 
 327   13:00   0.48   60.4    27    2.4   347     6.1   795.6    0.00 
 327   14:00   0.57   64.1    25    3.6   164     8.9   795.1    0.00 
 327   15:00   0.42   61.2    28    2.4   299     7.1   794.8    0.00 
 327   16:00   0.20   60.4    28    2.8   177     7.3   794.6    0.00 
 327   17:00   0.01   55.7    26    3.2    36     6.1   794.3    0.00 
 327   18:00   0.00   55.5    18    2.8    55     9.3   794.1    0.00 
 327   19:00   0.00   56.4    13    2.6   104     9.5   794.0    0.00 
 327   20:00   0.00   55.9    13    3.8    13    13.2   794.0    0.00 
 327   21:00   0.00   54.5    13    3.0    81     7.4   794.0    0.00 
 327   22:00   0.00   54.8    13    2.1    64     5.0   794.0    0.00 
 327   23:00   0.00   53.7    15    3.8   127     7.5   793.7    0.00 
 328    0:00   0.00   53.9    14    1.3    78     5.2   793.3    0.00 
 328    1:00   0.00   55.0    13    3.3   100     7.2   792.8    0.00 
 328    2:00   0.00   53.9    13    2.7    57     6.4   792.6    0.00 
 328    3:00   0.00   53.5    12    4.0    34    11.6   792.1    0.00 
 328    4:00   0.00   53.5    12    4.6    24     9.0   792.0    0.00 
 328    5:00   0.00   53.0    13    3.9    55     7.0   791.8    0.00 
 328    6:00   0.00   52.7    14    3.5    42     7.2   791.8    0.00 

Return to Spring Mountain Youth Camp graphs page.


Western Regional Climate Center,wrcc@dri.edu